createdAt,value
2019-02-21T00:01:34.962Z,3.45
2019-02-21T00:04:40.698Z,4.83
2019-02-21T00:07:46.576Z,4.42
2019-02-21T00:10:52.327Z,2.77
2019-02-21T00:13:58.224Z,2.50
2019-02-21T00:17:04.039Z,4.87
2019-02-21T00:20:09.999Z,2.90
2019-02-21T00:23:15.898Z,2.80
2019-02-21T00:26:21.615Z,2.85
2019-02-21T00:29:27.267Z,3.98
2019-02-21T00:32:33.123Z,2.65
2019-02-21T00:35:38.868Z,3.42
2019-02-21T00:38:44.659Z,4.08
2019-02-21T00:41:50.384Z,3.67
2019-02-21T00:44:56.139Z,2.62
2019-02-21T00:48:02.002Z,5.45
2019-02-21T00:51:07.868Z,3.87
2019-02-21T00:54:13.544Z,4.95
2019-02-21T00:57:19.369Z,2.67
2019-02-21T01:00:25.271Z,3.08
2019-02-21T01:03:30.975Z,4.35
2019-02-21T01:06:36.842Z,3.60
2019-02-21T01:09:42.633Z,4.10
2019-02-21T01:12:48.450Z,4.95
2019-02-21T01:15:54.211Z,4.45
2019-02-21T01:19:00.308Z,4.28
2019-02-21T01:22:06.123Z,3.45
2019-02-21T01:25:12.035Z,3.58
2019-02-21T01:28:17.728Z,4.47
2019-02-21T01:31:23.487Z,3.87
2019-02-21T01:34:29.281Z,4.90
2019-02-21T01:37:35.003Z,2.95
2019-02-21T01:40:41.112Z,3.10
2019-02-21T01:43:46.999Z,3.67
2019-02-21T01:46:52.679Z,3.95
2019-02-21T01:49:58.675Z,2.98
2019-02-21T01:53:04.501Z,3.27
2019-02-21T01:56:10.396Z,4.17
2019-02-21T01:59:16.247Z,4.25
2019-02-21T02:02:22.072Z,4.03
2019-02-21T02:05:27.963Z,3.42
2019-02-21T02:08:33.871Z,4.00
2019-02-21T02:11:39.643Z,3.85
2019-02-21T02:14:45.595Z,4.08
2019-02-21T02:17:52.486Z,2.72
2019-02-21T02:20:58.275Z,4.50
2019-02-21T02:24:04.195Z,3.77
2019-02-21T02:27:10.051Z,5.17
2019-02-21T02:30:15.952Z,3.62
2019-02-21T02:33:21.872Z,4.22
2019-02-21T02:36:27.785Z,3.87
2019-02-21T02:39:33.698Z,3.37
2019-02-21T02:42:39.588Z,3.65
2019-02-21T02:45:45.381Z,4.17
2019-02-21T02:48:52.403Z,4.37
2019-02-21T02:51:58.288Z,4.50
2019-02-21T02:55:04.252Z,3.98
2019-02-21T02:58:10.068Z,4.35
2019-02-21T03:01:15.928Z,4.00
2019-02-21T03:04:21.821Z,4.28
2019-02-21T03:07:28.661Z,4.42
2019-02-21T03:10:34.516Z,4.35
2019-02-21T03:13:40.395Z,2.92
2019-02-21T03:16:46.242Z,3.15
2019-02-21T03:19:52.098Z,9.20
2019-02-21T03:22:58.054Z,4.12
2019-02-21T03:26:04.021Z,5.37
2019-02-21T03:29:09.880Z,4.95
2019-02-21T03:32:15.945Z,8.20
2019-02-21T03:35:21.930Z,6.10
2019-02-21T03:38:27.761Z,6.17
2019-02-21T03:41:33.613Z,6.25
2019-02-21T03:44:39.577Z,4.58
2019-02-21T03:47:45.541Z,4.50
2019-02-21T03:50:51.526Z,6.87
2019-02-21T03:53:57.352Z,5.35
2019-02-21T03:57:03.147Z,6.83
2019-02-21T04:00:09.368Z,5.10
2019-02-21T04:03:15.231Z,7.25
2019-02-21T04:06:21.087Z,6.78
2019-02-21T04:09:26.981Z,5.80
2019-02-21T04:12:32.688Z,5.55
2019-02-21T04:15:38.552Z,6.20
2019-02-21T04:18:44.404Z,9.65
2019-02-21T04:21:50.377Z,6.22
2019-02-21T04:24:56.120Z,7.03
2019-02-21T04:28:01.980Z,6.58
2019-02-21T04:31:07.771Z,5.50
2019-02-21T04:34:13.599Z,6.28
2019-02-21T04:37:19.459Z,5.85
2019-02-21T04:40:25.207Z,6.75
2019-02-21T04:43:31.065Z,8.05
2019-02-21T04:46:36.956Z,6.28
2019-02-21T04:49:42.676Z,6.87
2019-02-21T04:52:49.623Z,7.70
2019-02-21T04:55:55.520Z,6.67
2019-02-21T04:59:01.169Z,5.72
2019-02-21T05:02:07.185Z,8.30
2019-02-21T05:05:13.093Z,7.10
2019-02-21T05:08:19.161Z,8.35
2019-02-21T05:11:25.153Z,6.58
2019-02-21T05:14:31.179Z,7.58
2019-02-21T05:17:38.105Z,7.35
2019-02-21T05:20:44.024Z,11.12
2019-02-21T05:23:49.983Z,10.13
2019-02-21T05:27:00.747Z,9.33
2019-02-21T05:30:08.280Z,9.90
2019-02-21T05:33:35.824Z,7.03
2019-02-21T05:36:59.849Z,10.40
2019-02-21T05:40:31.490Z,9.03
2019-02-21T05:44:08.271Z,7.63
2019-02-21T05:47:39.044Z,7.97
2019-02-21T05:50:58.305Z,10.13
2019-02-21T05:54:12.853Z,5.78
2019-02-21T05:57:46.524Z,7.62
2019-02-21T06:01:01.922Z,7.62
2019-02-21T06:04:25.208Z,5.75
2019-02-21T06:07:53.014Z,7.45
2019-02-21T06:11:08.037Z,6.55
2019-02-21T06:14:31.749Z,8.35
2019-02-21T06:18:02.388Z,5.45
2019-02-21T06:21:33.175Z,5.67
2019-02-21T06:24:54.044Z,7.00
2019-02-21T06:28:06.960Z,4.67
2019-02-21T06:31:16.164Z,6.72
2019-02-21T06:34:22.005Z,6.37
2019-02-21T06:37:28.003Z,31.10
2019-02-21T06:40:36.436Z,22.20
2019-02-21T06:43:41.572Z,15.23
2019-02-21T06:46:47.492Z,19.27
2019-02-21T06:49:53.453Z,19.45
2019-02-21T06:52:59.552Z,26.75
2019-02-21T06:56:05.472Z,20.43
2019-02-21T06:59:11.701Z,10.78
2019-02-21T07:02:17.807Z,9.18
2019-02-21T07:05:23.755Z,12.00
2019-02-21T07:08:29.785Z,11.18
2019-02-21T07:11:35.776Z,9.05
2019-02-21T07:14:41.793Z,9.00
2019-02-21T07:17:49.606Z,8.40
2019-02-21T07:20:55.199Z,5.95
2019-02-21T07:24:02.118Z,9.20
2019-02-21T07:27:08.239Z,7.50
2019-02-21T07:30:19.697Z,11.10
2019-02-21T07:33:28.525Z,7.10
2019-02-21T07:36:29.300Z,4.75
2019-02-21T07:39:36.426Z,7.40
2019-02-21T07:42:42.439Z,4.08
2019-02-21T07:45:48.313Z,15.53
2019-02-21T07:48:54.210Z,13.65
2019-02-21T07:52:00.021Z,13.38
2019-02-21T07:55:05.912Z,8.00
2019-02-21T07:58:12.136Z,9.85
2019-02-21T08:01:21.009Z,7.90
2019-02-21T08:04:26.900Z,6.28
2019-02-21T08:07:32.885Z,6.37
2019-02-21T08:10:38.792Z,7.22
2019-02-21T08:13:44.649Z,9.38
2019-02-21T08:16:50.462Z,5.85
2019-02-21T08:20:07.473Z,9.93
2019-02-21T08:23:04.140Z,5.22
2019-02-21T08:26:10.238Z,6.25
2019-02-21T08:29:16.180Z,4.30
2019-02-21T08:32:27.015Z,14.75
2019-02-21T08:35:32.820Z,12.73
2019-02-21T08:38:38.735Z,9.93
2019-02-21T08:41:44.699Z,9.80
2019-02-21T08:44:50.547Z,6.28
2019-02-21T08:47:56.507Z,6.08
2019-02-21T08:51:02.471Z,7.17
2019-02-21T08:54:08.329Z,4.95
2019-02-21T08:57:15.315Z,7.55
2019-02-21T09:00:21.063Z,6.35
2019-02-21T09:03:26.921Z,9.58
2019-02-21T09:06:32.689Z,7.65
2019-02-21T09:09:38.656Z,5.65
2019-02-21T09:12:48.180Z,3.87
2019-02-21T09:15:52.097Z,4.00
2019-02-21T09:18:57.960Z,3.92
2019-02-21T09:22:03.907Z,3.65
2019-02-21T09:25:11.621Z,5.30
2019-02-21T09:28:17.465Z,4.95
2019-02-21T09:31:23.444Z,4.45
2019-02-21T09:34:29.341Z,4.80
2019-02-21T09:37:35.254Z,7.03
2019-02-21T09:40:42.720Z,5.72
2019-02-21T09:43:50.981Z,5.00
2019-02-21T09:46:56.422Z,4.33
2019-02-21T09:50:02.328Z,4.58
2019-02-21T09:53:08.336Z,5.67
2019-02-21T09:56:14.292Z,4.90
2019-02-21T09:59:20.252Z,6.28
2019-02-21T10:02:26.108Z,6.35
2019-02-21T10:05:32.320Z,30.55
2019-02-21T10:08:38.337Z,11.95
2019-02-21T10:11:44.366Z,9.80
2019-02-21T10:14:50.352Z,6.28
2019-02-21T10:17:56.852Z,7.20
2019-02-21T10:21:15.030Z,8.48
2019-02-21T10:24:20.821Z,6.85
2019-02-21T10:27:26.679Z,7.35
2019-02-21T10:30:32.792Z,7.65
2019-02-21T10:33:46.568Z,6.30
2019-02-21T10:36:46.456Z,14.98
2019-02-21T10:39:52.337Z,5.22
2019-02-21T10:42:58.337Z,4.45
2019-02-21T10:46:04.332Z,8.43
2019-02-21T10:49:10.244Z,11.03
2019-02-21T10:52:16.270Z,6.75
2019-02-21T10:55:22.163Z,4.08
2019-02-21T10:58:28.092Z,4.97
2019-02-21T11:01:34.137Z,2.80
2019-02-21T11:04:42.148Z,6.58
2019-02-21T11:07:47.640Z,3.60
2019-02-21T11:10:54.160Z,7.28
2019-02-21T11:13:59.970Z,6.35
2019-02-21T11:17:05.872Z,5.80
2019-02-21T11:20:13.745Z,6.08
2019-02-21T11:23:20.930Z,5.50
2019-02-21T11:26:36.313Z,5.90
2019-02-21T11:29:41.958Z,4.78
2019-02-21T11:32:48.159Z,5.05
2019-02-21T11:35:54.190Z,4.17
2019-02-21T11:39:00.921Z,4.92
2019-02-21T11:42:08.306Z,7.37
2019-02-21T11:45:15.545Z,2.60
2019-02-21T11:48:22.572Z,3.87
2019-02-21T11:51:28.648Z,3.98
2019-02-21T11:59:38.074Z,5.20
2019-02-21T12:07:59.393Z,2.27
2019-02-21T12:11:07.328Z,3.80
2019-02-21T12:14:13.292Z,4.30
2019-02-21T12:17:19.253Z,5.58
2019-02-21T12:20:25.109Z,21.35
2019-02-21T12:23:30.872Z,7.47
2019-02-21T12:26:36.826Z,6.65
2019-02-21T12:29:42.676Z,6.47
2019-02-21T12:32:48.647Z,5.67
2019-02-21T12:35:54.627Z,2.55
2019-02-21T12:39:00.578Z,7.50
2019-02-21T12:42:07.892Z,3.75
2019-02-21T12:45:15.957Z,3.47
2019-02-21T12:48:21.820Z,2.62
2019-02-21T12:51:27.572Z,2.60
2019-02-21T12:54:33.544Z,3.52
2019-02-21T12:57:39.544Z,2.62
2019-02-21T13:00:45.583Z,2.35
2019-02-21T13:03:51.540Z,2.52
2019-02-21T13:06:57.384Z,3.67
2019-02-21T13:10:03.241Z,2.15
2019-02-21T13:13:09.145Z,2.58
2019-02-21T13:16:14.959Z,3.77
2019-02-21T13:19:20.811Z,1.57
2019-02-21T13:22:26.634Z,2.85
2019-02-21T13:25:32.634Z,3.77
2019-02-21T13:28:38.488Z,3.52
2019-02-21T13:31:44.488Z,2.17
2019-02-21T13:34:50.410Z,3.27
2019-02-21T13:37:56.219Z,1.42
2019-02-21T13:41:02.121Z,1.80
2019-02-21T13:44:08.172Z,3.02
2019-02-21T13:47:14.093Z,2.00
2019-02-21T13:50:19.892Z,2.35
2019-02-21T14:02:17.624Z,3.37
2019-02-21T14:05:23.625Z,2.77
2019-02-21T14:08:32.620Z,1.70
2019-02-21T14:11:38.468Z,1.25
2019-02-21T14:14:44.337Z,1.60
2019-02-21T14:17:50.088Z,2.37
2019-02-21T14:20:55.932Z,2.10
2019-02-21T14:24:01.807Z,6.60
2019-02-21T14:27:08.885Z,9.40
2019-02-21T14:30:16.719Z,6.90
2019-02-21T14:33:22.556Z,4.50
2019-02-21T14:36:28.396Z,2.35
2019-02-21T14:44:09.341Z,3.10
2019-02-21T14:47:15.280Z,3.15
2019-02-21T14:50:21.128Z,3.02
2019-02-21T14:53:27.034Z,3.98
2019-02-21T14:56:33.214Z,1.65
2019-02-21T14:59:39.134Z,3.12
2019-02-21T15:02:45.064Z,9.73
2019-02-21T15:05:51.062Z,2.15
2019-02-21T15:08:57.191Z,4.33
2019-02-21T15:12:03.200Z,2.33
2019-02-21T15:15:10.040Z,2.58
2019-02-21T15:18:16.145Z,4.05
2019-02-21T15:21:22.070Z,2.62
2019-02-21T15:24:28.055Z,1.45
2019-02-21T15:27:33.981Z,1.57
2019-02-21T15:30:39.950Z,4.78
2019-02-21T15:33:45.867Z,2.10
2019-02-21T15:36:51.760Z,2.83
2019-02-21T15:39:57.763Z,2.33
2019-02-21T15:43:05.355Z,1.72
2019-02-21T15:46:11.382Z,3.08
2019-02-21T15:49:17.422Z,1.98
2019-02-21T15:52:23.402Z,6.12
2019-02-21T15:55:32.084Z,4.47
2019-02-21T15:58:37.060Z,3.87
2019-02-21T16:01:47.618Z,2.92
2019-02-21T16:04:50.464Z,1.72
2019-02-21T16:07:56.333Z,2.92
2019-02-21T16:11:04.140Z,2.47
2019-02-21T16:14:09.937Z,2.50
2019-02-21T16:17:15.931Z,3.83
2019-02-21T16:20:22.119Z,2.12
2019-02-21T16:23:28.221Z,4.25
2019-02-21T16:26:34.141Z,4.20
2019-02-21T16:29:40.288Z,4.78
2019-02-21T16:32:47.357Z,3.05
2019-02-21T16:35:53.384Z,3.22
2019-02-21T16:38:59.180Z,7.12
2019-02-21T16:42:04.904Z,1.85
2019-02-21T16:45:11.929Z,8.90
2019-02-21T16:48:17.855Z,6.22
2019-02-21T16:51:23.696Z,3.00
2019-02-21T16:54:29.664Z,2.65
2019-02-21T16:57:35.860Z,6.15
2019-02-21T17:00:51.394Z,8.53
2019-02-21T17:03:49.188Z,6.85
2019-02-21T17:06:55.045Z,10.95
2019-02-21T17:10:03.893Z,8.83
2019-02-21T17:13:12.100Z,6.80
2019-02-21T17:16:19.440Z,4.90
2019-02-21T17:19:25.471Z,5.70
2019-02-21T17:22:31.721Z,4.72
2019-02-21T17:25:37.960Z,4.20
2019-02-21T17:28:44.175Z,7.20
2019-02-21T17:31:50.086Z,2.98
2019-02-21T17:34:56.272Z,8.75
2019-02-21T17:38:02.817Z,5.62
2019-02-21T17:41:08.930Z,3.27
2019-02-21T17:44:15.135Z,4.25
2019-02-21T17:47:21.076Z,3.17
2019-02-21T17:50:27.081Z,2.42
2019-02-21T17:53:33.280Z,3.17
2019-02-21T17:56:41.437Z,5.28
2019-02-21T17:59:47.408Z,2.20
2019-02-21T18:02:53.227Z,2.45
2019-02-21T18:05:59.088Z,2.08
2019-02-21T18:09:05.600Z,5.62
2019-02-21T18:12:12.945Z,3.05
2019-02-21T18:15:18.939Z,2.35
2019-02-21T18:18:24.786Z,3.85
2019-02-21T18:21:30.732Z,3.37
2019-02-21T18:24:36.692Z,2.67
2019-02-21T18:27:42.649Z,1.60
2019-02-21T18:30:48.651Z,3.25
2019-02-21T18:33:54.351Z,3.22
2019-02-21T18:37:00.220Z,1.70
2019-02-21T18:40:16.987Z,2.02
2019-02-21T18:43:14.910Z,2.80
2019-02-21T18:46:20.819Z,2.72
2019-02-21T18:49:26.607Z,1.80
2019-02-21T18:52:32.580Z,2.22
2019-02-21T18:55:38.476Z,3.25
2019-02-21T18:58:44.401Z,3.70
2019-02-21T19:01:50.355Z,5.10
2019-02-21T19:04:56.108Z,2.22
2019-02-21T19:08:05.315Z,3.45
2019-02-21T19:11:09.708Z,2.70
2019-02-21T19:14:15.736Z,5.20
2019-02-21T19:17:21.483Z,1.80
2019-02-21T19:20:27.594Z,2.25
2019-02-21T19:23:33.516Z,2.75
2019-02-21T19:26:39.412Z,1.72
2019-02-21T19:29:45.321Z,2.67
2019-02-21T19:32:51.284Z,2.52
2019-02-21T19:35:57.491Z,4.08
2019-02-21T19:39:04.926Z,1.15
2019-02-21T19:42:12.488Z,2.85
2019-02-21T19:45:18.810Z,2.75
2019-02-21T19:48:24.796Z,1.67
2019-02-21T19:51:30.671Z,1.87
2019-02-21T19:54:36.587Z,3.75
2019-02-21T19:57:42.476Z,2.27
2019-02-21T20:00:48.459Z,1.17
2019-02-21T20:03:54.364Z,3.72
2019-02-21T20:07:01.496Z,2.47
2019-02-21T20:10:07.946Z,1.95
2019-02-21T20:13:15.272Z,1.65
2019-02-21T20:16:21.384Z,1.95
2019-02-21T20:19:27.343Z,1.67
2019-02-21T20:22:33.336Z,1.98
2019-02-21T20:25:39.515Z,2.08
2019-02-21T20:28:45.632Z,2.55
2019-02-21T20:31:51.736Z,1.50
2019-02-21T20:34:58.375Z,2.70
2019-02-21T20:38:09.148Z,2.60
2019-02-21T20:41:19.923Z,5.72
2019-02-21T20:44:25.893Z,22.10
2019-02-21T20:47:31.863Z,8.10
2019-02-21T20:50:37.927Z,21.87
2019-02-21T20:53:43.860Z,12.90
2019-02-21T20:56:49.720Z,10.38
2019-02-21T20:59:55.684Z,7.15
2019-02-21T21:03:01.555Z,10.75
2019-02-21T21:06:07.435Z,8.48
2019-02-21T21:09:13.353Z,11.78
2019-02-21T21:12:19.216Z,4.42
2019-02-21T21:15:25.167Z,4.42
2019-02-21T21:18:34.156Z,5.40
2019-02-21T21:21:39.887Z,9.33
2019-02-21T21:24:45.815Z,4.92
2019-02-21T21:27:52.076Z,8.28
2019-02-21T21:30:57.940Z,5.08
2019-02-21T21:34:03.836Z,4.70
2019-02-21T21:37:09.796Z,2.52
2019-02-21T21:40:16.151Z,5.28
2019-02-21T21:43:21.876Z,2.40
2019-02-21T21:46:27.636Z,3.30
2019-02-21T21:49:33.504Z,4.97
2019-02-21T21:52:39.459Z,4.87
2019-02-21T21:55:45.316Z,2.02
2019-02-21T21:58:51.065Z,3.50
2019-02-21T22:01:56.999Z,3.20
2019-02-21T22:05:02.886Z,4.75
2019-02-21T22:08:09.981Z,5.97
2019-02-21T22:11:15.968Z,2.58
2019-02-21T22:14:21.892Z,3.02
2019-02-21T22:17:27.855Z,2.62
2019-02-21T22:20:33.747Z,3.58
2019-02-21T22:23:39.668Z,2.50
2019-02-21T22:26:45.597Z,4.37
2019-02-21T22:29:51.590Z,3.72
2019-02-21T22:32:57.555Z,5.15
2019-02-21T22:36:03.549Z,3.20
2019-02-21T22:39:16.398Z,1.90
2019-02-21T22:42:17.484Z,2.27
2019-02-21T22:45:23.436Z,2.70
2019-02-21T22:48:29.611Z,2.50
2019-02-21T22:51:54.549Z,1.95
2019-02-21T22:55:09.895Z,2.08
2019-02-21T22:58:11.808Z,5.28
2019-02-21T23:01:38.519Z,1.75
2019-02-21T23:05:21.264Z,2.77
2019-02-21T23:08:44.289Z,4.47
2019-02-21T23:11:50.239Z,1.52
2019-02-21T23:14:56.299Z,1.67
2019-02-21T23:18:02.259Z,1.90
2019-02-21T23:21:08.323Z,3.33
2019-02-21T23:24:14.187Z,1.52
2019-02-21T23:27:20.147Z,1.77
2019-02-21T23:30:26.920Z,1.35
2019-02-21T23:33:34.489Z,1.50
2019-02-21T23:36:40.520Z,1.75
2019-02-21T23:39:46.536Z,1.82
2019-02-21T23:42:52.496Z,1.67
2019-02-21T23:45:58.411Z,1.65
2019-02-21T23:49:04.379Z,1.50
2019-02-21T23:52:10.159Z,2.77
2019-02-21T23:55:15.880Z,1.70
